Time;durP1;ratioP1;P1;durP2;ratioP2;P2;SDS_P1;SDS_P2;PMS_P1;PMS_P2;Temp;Humidity;BMP_temperature;BMP_pressure;BME280_temperature;BME280_humidity;BME280_pressure;Samples;Min_cycle;Max_cycle;Signal;HPM_P1;HPM_P2
2022/06/15 00:01:22;;;;;;;6.10;2.97;;;;;;;11.34;58.21;99025.72;5087757;28;20036;-74
2022/06/15 00:03:48;;;;;;;5.85;3.10;;;;;;;11.30;58.28;99022.72;5086082;28;20040;-74
2022/06/15 00:06:17;;;;;;;6.82;3.15;;;;;;;11.27;58.64;99035.09;5086805;28;20375;-74
2022/06/15 00:08:44;;;;;;;6.13;3.10;;;;;;;11.23;58.12;99025.78;5087756;28;20032;-74
2022/06/15 00:11:19;;;;;;;7.93;3.88;;;;;;;11.22;58.21;99037.06;5082230;28;20025;-75
2022/06/15 00:13:45;;;;;;;7.35;3.67;;;;;;;11.16;58.52;99033.56;5084191;28;20063;-74
2022/06/15 00:16:12;;;;;;;6.97;3.42;;;;;;;11.12;58.93;99032.47;5088327;28;20028;-74
2022/06/15 00:18:37;;;;;;;9.50;3.65;;;;;;;11.09;58.13;99033.06;5086391;28;20511;-74
2022/06/15 00:21:04;;;;;;;7.20;4.10;;;;;;;11.07;58.96;99030.56;5087614;28;20024;-74
2022/06/15 00:23:31;;;;;;;8.02;4.10;;;;;;;11.04;58.88;99035.81;5085680;28;20035;-74
2022/06/15 00:25:57;;;;;;;7.38;3.35;;;;;;;11.01;58.45;99032.53;5087958;28;20115;-74
2022/06/15 00:28:24;;;;;;;7.05;3.58;;;;;;;10.98;59.16;99029.56;5089460;28;20032;-74
2022/06/15 00:30:50;;;;;;;7.07;3.20;;;;;;;10.94;58.73;99026.56;5085712;28;20043;-74
2022/06/15 00:33:21;;;;;;;7.18;3.30;;;;;;;10.92;58.92;99028.75;5088175;28;20028;-75
2022/06/15 00:35:54;;;;;;;5.28;3.30;;;;;;;10.88;59.29;99027.69;5086916;28;20044;-74
2022/06/15 00:38:20;;;;;;;5.43;2.88;;;;;;;10.85;58.83;99025.50;5087420;28;20359;-74
2022/06/15 00:40:46;;;;;;;6.20;2.97;;;;;;;10.81;59.49;99022.53;5086338;28;20028;-74
2022/06/15 00:43:11;;;;;;;6.80;3.40;;;;;;;10.78;59.13;99023.09;5072706;28;20025;-75
2022/06/15 00:45:37;;;;;;;8.57;3.60;;;;;;;10.76;59.23;99019.81;5088775;28;20024;-74
2022/06/15 00:48:03;;;;;;;7.78;3.40;;;;;;;10.74;60.09;99016.53;5088020;28;20063;-75
2022/06/15 00:50:28;;;;;;;8.77;3.40;;;;;;;10.71;59.05;99026.16;5086882;28;20027;-75
2022/06/15 00:53:07;;;;;;;11.77;4.05;;;;;;;10.69;59.75;99022.88;5086303;28;20025;-74
2022/06/15 00:55:34;;;;;;;6.43;3.60;;;;;;;10.65;59.59;99016.31;5084062;28;20676;-75
2022/06/15 00:58:07;;;;;;;7.95;3.70;;;;;;;10.63;59.27;99017.69;5086995;28;20024;-75
2022/06/15 01:00:33;;;;;;;7.32;3.63;;;;;;;10.63;59.99;99021.25;5090779;28;20028;-75
2022/06/15 01:02:59;;;;;;;9.43;3.95;;;;;;;10.63;59.88;99018.53;5088148;28;20027;-74
2022/06/15 01:05:52;;;;;;;7.72;3.67;;;;;;;10.63;59.81;99021.25;5088275;28;20035;-75
2022/06/15 01:08:26;;;;;;;9.40;5.72;;;;;;;10.64;60.44;99022.06;5083289;28;20043;-79
2022/06/15 01:11:03;;;;;;;9.43;4.30;;;;;;;10.64;60.35;99016.56;5085561;28;20507;-79
2022/06/15 01:13:43;;;;;;;6.20;3.83;;;;;;;10.63;60.38;99013.03;5087682;28;20040;-79
2022/06/15 01:16:14;;;;;;;6.60;3.70;;;;;;;10.60;60.08;99024.56;5092302;28;20050;-80
2022/06/15 01:18:54;;;;;;;7.70;4.00;;;;;;;10.56;60.44;99010.59;5092724;28;20059;-81
2022/06/15 01:21:28;;;;;;;5.85;3.22;;;;;;;10.54;60.32;99015.56;5090957;28;20024;-80
2022/06/15 01:24:24;;;;;;;7.70;3.38;;;;;;;10.53;60.80;99015.81;5092539;28;20040;-81
2022/06/15 01:27:08;;;;;;;6.35;3.42;;;;;;;10.54;60.59;99020.19;5085159;28;20561;-80
2022/06/15 01:29:54;;;;;;;6.75;4.00;;;;;;;10.49;60.70;99009.25;5088279;28;20594;-80
2022/06/15 01:32:38;;;;;;;7.97;3.78;;;;;;;10.45;60.19;99010.91;5075762;28;20032;-81
2022/06/15 01:35:12;;;;;;;9.02;5.05;;;;;;;10.43;60.93;99013.97;5072259;28;20025;-81
2022/06/15 01:37:57;;;;;;;7.78;4.05;;;;;;;10.41;61.04;99008.75;5089481;28;20027;-80
2022/06/15 01:40:31;;;;;;;6.90;4.13;;;;;;;10.40;60.28;99017.25;5092533;28;20024;-80
2022/06/15 01:43:07;;;;;;;9.18;4.45;;;;;;;10.36;60.25;99007.91;5092092;28;20499;-81
2022/06/15 01:45:35;;;;;;;6.35;4.13;;;;;;;10.35;61.03;99014.50;5094650;28;20107;-80
2022/06/15 01:48:06;;;;;;;7.95;4.53;;;;;;;10.28;60.58;99007.41;5072753;28;20064;-80
2022/06/15 01:50:37;;;;;;;6.88;4.70;;;;;;;10.25;61.32;99015.38;5071573;28;20035;-74
2022/06/15 01:53:19;;;;;;;7.40;4.57;;;;;;;10.21;60.37;99017.03;5071382;28;20084;-74
2022/06/15 01:56:08;;;;;;;9.15;4.75;;;;;;;10.19;61.35;99009.06;5075804;28;20025;-74
2022/06/15 01:58:39;;;;;;;7.75;4.35;;;;;;;10.15;61.27;99002.53;5078623;28;20046;-74
2022/06/15 02:01:16;;;;;;;10.15;4.78;;;;;;;10.17;61.57;99010.47;5071598;28;20028;-74
2022/06/15 02:04:16;;;;;;;9.90;4.50;;;;;;;10.14;60.87;99014.59;5088598;28;20113;-75
2022/06/15 02:06:44;;;;;;;;;;;;;;;10.09;61.58;99015.44;5088040;28;20488;-74
2022/06/15 02:09:19;;;;;;;11.07;4.63;;;;;;;10.04;61.53;99012.69;5088329;28;19911;-74
2022/06/15 02:11:45;;;;;;;9.65;4.70;;;;;;;10.04;61.39;99015.44;5083429;28;20575;-74
2022/06/15 02:14:24;;;;;;;8.75;4.43;;;;;;;10.01;60.96;99012.44;5091935;28;20056;-74
2022/06/15 02:16:57;;;;;;;9.90;4.60;;;;;;;10.00;61.30;99019.84;5088435;28;20047;-74
2022/06/15 02:19:45;;;;;;;7.70;4.00;;;;;;;9.96;61.20;99013.28;5080306;28;20293;-75
2022/06/15 02:22:28;;;;;;;5.72;3.75;;;;;;;9.91;61.22;99019.59;5083122;28;20380;-75
2022/06/15 02:24:57;;;;;;;8.88;4.25;;;;;;;9.88;61.64;99017.41;5081154;28;20024;-74
2022/06/15 02:27:26;;;;;;;8.85;3.58;;;;;;;9.87;61.79;99020.44;5073907;28;20378;-74
2022/06/15 02:29:57;;;;;;;5.57;3.58;;;;;;;9.84;61.65;99019.06;5078116;28;20052;-74
2022/06/15 02:32:24;;;;;;;9.68;3.90;;;;;;;9.84;62.30;99019.06;5087422;28;20507;-74
2022/06/15 02:34:49;;;;;;;6.97;3.10;;;;;;;9.85;61.69;99020.69;5083868;28;20025;-73
2022/06/15 02:37:15;;;;;;;8.35;3.42;;;;;;;9.84;62.00;99021.78;5087142;28;20043;-74
2022/06/15 02:39:40;;;;;;;5.13;3.10;;;;;;;9.82;62.22;99026.72;5089705;28;20412;-74
2022/06/15 02:42:26;;;;;;;7.07;3.38;;;;;;;9.80;61.77;99029.75;5090473;28;20105;-74
2022/06/15 02:44:54;;;;;;;8.68;3.70;;;;;;;9.81;62.37;99030.56;5087247;28;20044;-74
2022/06/15 02:47:22;;;;;;;6.80;3.33;;;;;;;9.80;62.20;99024.28;5090437;28;20038;-73
2022/06/15 02:49:51;;;;;;;5.28;3.50;;;;;;;9.76;61.76;99025.94;5085941;28;20028;-74
2022/06/15 02:52:19;;;;;;;6.65;4.00;;;;;;;9.74;62.23;99021.84;5080604;28;20032;-76
2022/06/15 02:54:51;;;;;;;8.68;4.00;;;;;;;9.72;61.69;99022.09;5084176;28;21394;-74
2022/06/15 02:57:18;;;;;;;8.30;3.67;;;;;;;9.69;62.64;99022.66;5084715;28;20036;-74
2022/06/15 02:59:45;;;;;;;9.07;3.83;;;;;;;9.69;62.72;99022.66;5083710;28;20784;-74
2022/06/15 03:02:14;;;;;;;6.93;3.30;;;;;;;9.69;62.33;99019.91;5082155;28;20031;-74
2022/06/15 03:04:49;;;;;;;6.95;3.70;;;;;;;9.70;62.20;99023.47;5082140;28;20021;-74
2022/06/15 03:07:15;;;;;;;8.63;3.80;;;;;;;9.73;62.59;99025.69;5085601;28;20024;-74
2022/06/15 03:09:40;;;;;;;7.97;3.95;;;;;;;9.76;62.41;99016.91;5089062;28;20062;-74
2022/06/15 03:12:07;;;;;;;11.23;4.32;;;;;;;9.78;62.19;99028.41;5086909;28;20065;-73
2022/06/15 03:14:33;;;;;;;10.82;3.92;;;;;;;9.80;62.76;99027.03;5085727;28;20517;-74
2022/06/15 03:16:59;;;;;;;7.82;4.30;;;;;;;9.81;62.64;99030.56;5085346;28;20020;-74
2022/06/15 03:19:25;;;;;;;9.07;4.07;;;;;;;9.81;63.07;99028.66;5081416;28;20021;-74
2022/06/15 03:21:51;;;;;;;8.13;3.90;;;;;;;9.79;62.92;99027.28;5083028;28;20073;-74
2022/06/15 03:24:16;;;;;;;10.90;4.28;;;;;;;9.82;63.28;99022.09;5081506;28;20423;-74
2022/06/15 03:26:42;;;;;;;9.60;4.25;;;;;;;9.85;63.05;99030.84;5088534;28;20016;-74
2022/06/15 03:29:08;;;;;;;10.10;4.47;;;;;;;9.88;63.43;99028.38;5087998;28;20050;-73
2022/06/15 03:31:34;;;;;;;9.40;4.05;;;;;;;9.93;62.57;99030.28;5085302;28;20056;-74
2022/06/15 03:34:00;;;;;;;7.63;3.85;;;;;;;9.97;63.21;99036.84;5085367;28;20032;-73
2022/06/15 03:36:25;;;;;;;8.38;4.28;;;;;;;9.98;62.82;99028.34;5081628;28;20024;-74
2022/06/15 03:38:51;;;;;;;7.97;4.20;;;;;;;10.03;63.30;99026.69;5082201;28;20039;-73
2022/06/15 03:41:18;;;;;;;7.22;4.40;;;;;;;10.06;63.64;99031.63;5080597;28;20468;-73
2022/06/15 03:43:44;;;;;;;11.60;4.47;;;;;;;10.09;63.31;99029.13;5086173;28;20085;-73
2022/06/15 03:46:11;;;;;;;10.63;4.85;;;;;;;10.15;63.42;99037.34;5088197;28;20028;-73
2022/06/15 03:48:36;;;;;;;9.55;4.07;;;;;;;10.21;63.38;99022.50;5085668;28;20058;-73
2022/06/15 03:51:02;;;;;;;9.40;4.20;;;;;;;10.26;63.92;99025.25;5085369;28;20383;-73
2022/06/15 03:53:27;;;;;;;7.18;3.83;;;;;;;10.31;63.53;99018.91;5082089;28;20059;-73
2022/06/15 03:55:52;;;;;;;9.32;4.05;;;;;;;10.37;63.91;99017.78;5082514;28;20028;-73
2022/06/15 03:58:19;;;;;;;13.43;4.45;;;;;;;10.41;63.29;99018.91;5081143;28;20008;-74
2022/06/15 04:00:45;;;;;;;6.95;4.88;;;;;;;10.48;63.57;99011.19;5086007;28;20442;-74
2022/06/15 04:03:10;;;;;;;10.15;4.90;;;;;;;10.58;63.06;99015.78;5087997;28;20020;-74
2022/06/15 04:05:50;;;;;;;7.68;4.97;;;;;;;10.67;63.55;99021.50;5085790;28;20013;-74
2022/06/15 04:11:08;;;;;;;10.13;5.13;;;;;;;10.81;63.95;99016.19;5082531;28;20320;-73
2022/06/15 04:13:35;;;;;;;8.80;5.00;;;;;;;10.89;64.36;99023.03;5080572;28;20430;-73
2022/06/15 04:16:04;;;;;;;8.77;4.65;;;;;;;10.98;63.76;99018.59;5079119;28;20038;-73
2022/06/15 04:18:29;;;;;;;8.52;4.40;;;;;;;11.07;63.58;99016.03;5084957;28;20027;-73
2022/06/15 04:20:55;;;;;;;7.57;3.95;;;;;;;11.16;64.59;99009.66;5086345;28;20110;-73
2022/06/15 04:23:22;;;;;;;6.18;3.85;;;;;;;11.25;63.79;99014.53;5083163;28;20047;-73
2022/06/15 04:25:54;;;;;;;7.60;3.88;;;;;;;11.36;63.78;99012.50;5085113;28;20028;-73
2022/06/15 04:28:21;;;;;;;8.30;3.95;;;;;;;11.45;64.20;99024.53;5083932;28;20016;-73
2022/06/15 04:30:48;;;;;;;9.00;4.13;;;;;;;11.55;63.75;99010.72;5079863;28;20013;-73
2022/06/15 04:33:14;;;;;;;8.68;3.90;;;;;;;11.66;63.83;99019.66;5080846;28;20095;-73
2022/06/15 04:35:40;;;;;;;10.40;3.50;;;;;;;11.74;63.75;99015.47;5093505;28;20020;-73
2022/06/15 04:38:06;;;;;;;6.43;3.30;;;;;;;11.81;63.71;99010.44;5094085;28;20024;-73
2022/06/15 04:40:33;;;;;;;6.82;2.92;;;;;;;11.94;63.40;99016.38;5093811;28;20024;-74
2022/06/15 04:42:59;;;;;;;6.93;3.60;;;;;;;12.03;63.26;99011.88;5093962;28;20104;-73
2022/06/15 04:45:24;;;;;;;5.93;3.00;;;;;;;12.13;63.72;99011.75;5085046;28;20461;-73
2022/06/15 04:47:50;;;;;;;6.25;2.72;;;;;;;12.23;62.82;99010.00;5073937;28;20579;-74
2022/06/15 04:50:16;;;;;;;4.82;2.30;;;;;;;12.33;63.35;98999.69;5078783;28;20016;-73
2022/06/15 04:52:45;;;;;;;4.55;2.40;;;;;;;12.46;62.70;99011.91;5092835;28;20032;-73
2022/06/15 04:55:15;;;;;;;4.88;2.55;;;;;;;12.56;62.40;99012.88;5093102;28;20020;-73
2022/06/15 04:57:41;;;;;;;4.85;2.50;;;;;;;12.67;62.28;99011.66;5093827;28;20028;-73
2022/06/15 05:00:12;;;;;;;6.30;2.25;;;;;;;12.76;62.60;99009.03;5095853;28;20020;-74
2022/06/15 05:02:37;;;;;;;6.40;2.90;;;;;;;12.86;62.02;99008.06;5090615;28;20059;-75
2022/06/15 05:05:03;;;;;;;6.50;3.15;;;;;;;12.94;62.01;99015.66;5094299;28;20506;-75
2022/06/15 05:07:29;;;;;;;7.45;3.30;;;;;;;13.03;62.03;99015.81;5075517;28;20043;-73
2022/06/15 05:09:54;;;;;;;6.70;3.10;;;;;;;13.10;61.64;99019.81;5092856;28;20472;-73
2022/06/15 05:12:20;;;;;;;5.60;2.72;;;;;;;13.16;62.11;99017.78;5092640;28;20020;-74
2022/06/15 05:14:48;;;;;;;8.07;2.83;;;;;;;13.26;61.86;99014.06;5092535;28;20035;-74
2022/06/15 05:17:15;;;;;;;9.93;3.10;;;;;;;13.35;61.65;99014.19;5092755;28;20085;-74
2022/06/15 05:19:41;;;;;;;7.95;2.92;;;;;;;13.40;61.38;99012.16;5092946;28;20031;-73
2022/06/15 05:22:06;;;;;;;5.32;2.78;;;;;;;13.49;61.62;99006.00;5092506;28;20032;-73
2022/06/15 05:24:33;;;;;;;7.35;2.95;;;;;;;13.55;61.54;99013.88;5097409;28;20023;-74
2022/06/15 05:26:58;;;;;;;7.57;3.00;;;;;;;13.63;61.40;99012.38;5087167;28;20510;-73
2022/06/15 05:29:25;;;;;;;7.88;3.35;;;;;;;13.70;61.10;99017.47;5092300;28;20017;-73
2022/06/15 05:31:51;;;;;;;8.88;2.90;;;;;;;13.80;60.98;99022.81;5090999;28;20586;-74
2022/06/15 05:34:17;;;;;;;7.35;2.90;;;;;;;13.86;60.57;99026.28;5092867;28;20048;-73
2022/06/15 05:36:43;;;;;;;5.65;3.00;;;;;;;13.91;60.61;99028.13;5080649;28;20024;-73
2022/06/15 05:39:09;;;;;;;8.02;2.92;;;;;;;13.98;60.39;99028.53;5085720;28;20020;-74
2022/06/15 05:41:35;;;;;;;5.88;3.03;;;;;;;14.04;60.16;99021.00;5089511;28;20027;-74
2022/06/15 05:44:13;;;;;;;6.70;2.88;;;;;;;14.10;59.80;99026.09;5075980;28;20016;-74
2022/06/15 05:46:42;;;;;;;7.00;2.70;;;;;;;14.14;59.80;99024.38;5089061;28;20052;-74
2022/06/15 05:49:09;;;;;;;6.90;2.65;;;;;;;14.20;59.33;99018.75;5072674;28;20031;-74
2022/06/15 05:51:35;;;;;;;4.18;2.40;;;;;;;14.25;59.40;99024.97;5072624;28;20032;-76
2022/06/15 05:54:02;;;;;;;7.40;2.88;;;;;;;14.32;59.41;99021.00;5075047;28;20044;-75
2022/06/15 05:56:28;;;;;;;6.65;2.42;;;;;;;14.38;59.04;99020.56;5073399;28;20036;-74
2022/06/15 05:58:53;;;;;;;8.02;3.50;;;;;;;14.43;58.49;99020.47;5080823;28;20020;-72
2022/06/15 06:01:33;;;;;;;6.65;2.83;;;;;;;14.49;58.51;99023.94;5091880;28;20024;-73
2022/06/15 06:03:59;;;;;;;6.28;2.90;;;;;;;14.56;58.34;99018.00;5088406;28;20055;-73
2022/06/15 06:06:25;;;;;;;5.10;2.40;;;;;;;14.64;58.48;99027.50;5072786;28;20032;-73
2022/06/15 06:08:51;;;;;;;6.22;2.70;;;;;;;14.71;58.47;99014.94;5078536;28;20043;-73
2022/06/15 06:11:18;;;;;;;5.80;2.33;;;;;;;14.78;58.29;99033.03;5072178;28;20031;-74
2022/06/15 06:13:43;;;;;;;6.32;2.45;;;;;;;14.84;57.34;99026.25;5072625;28;20044;-74
2022/06/15 06:16:09;;;;;;;8.38;2.50;;;;;;;14.89;57.20;99028.91;5088502;28;20047;-74
2022/06/15 06:18:35;;;;;;;6.25;2.60;;;;;;;14.94;57.40;99022.44;5085054;28;20119;-74
2022/06/15 06:21:01;;;;;;;10.10;2.70;;;;;;;14.99;57.13;99028.69;5079840;28;20032;-75
2022/06/15 06:23:27;;;;;;;5.30;2.13;;;;;;;15.05;56.95;99026.59;5088549;28;20854;-74
2022/06/15 06:25:53;;;;;;;5.28;2.30;;;;;;;15.10;57.08;99023.72;5081915;28;20046;-74
2022/06/15 06:28:24;;;;;;;5.18;2.20;;;;;;;15.18;56.46;99024.91;5072854;28;20492;-74
2022/06/15 06:30:49;;;;;;;7.18;2.33;;;;;;;15.25;56.66;99028.06;5077228;28;20318;-76
2022/06/15 06:33:15;;;;;;;4.40;2.17;;;;;;;15.32;56.49;99024.84;5081142;28;20401;-73
2022/06/15 06:35:40;;;;;;;4.28;1.95;;;;;;;15.38;55.85;99029.13;5087525;28;20030;-74
2022/06/15 06:38:06;;;;;;;7.88;2.20;;;;;;;15.43;55.57;99039.25;5085888;28;20028;-75
2022/06/15 06:40:32;;;;;;;8.35;2.22;;;;;;;15.50;55.72;99036.03;5078995;28;20377;-74
2022/06/15 06:42:57;;;;;;;5.50;2.25;;;;;;;15.54;55.25;99032.31;5082153;28;20030;-80
2022/06/15 06:45:22;;;;;;;4.68;1.98;;;;;;;15.59;54.76;99034.16;5082511;28;20468;-79
2022/06/15 06:47:48;;;;;;;7.18;2.13;;;;;;;15.66;54.58;99033.72;5088209;28;20062;-76
2022/06/15 06:50:14;;;;;;;5.35;1.90;;;;;;;15.70;54.54;99035.50;5082474;28;20492;-76
2022/06/15 06:52:41;;;;;;;4.97;2.40;;;;;;;15.79;54.73;99032.81;5084856;28;20074;-73
2022/06/15 06:55:07;;;;;;;3.78;2.22;;;;;;;15.86;53.79;99032.34;5083316;28;20024;-76
2022/06/15 06:57:32;;;;;;;5.18;2.05;;;;;;;15.88;53.96;99032.88;5085064;28;20073;-75
2022/06/15 06:59:57;;;;;;;3.38;1.80;;;;;;;15.82;52.78;99028.59;5077546;28;20030;-80
2022/06/15 07:02:23;;;;;;;3.88;1.75;;;;;;;15.83;53.29;99030.22;5079359;28;20028;-78
2022/06/15 07:04:48;;;;;;;3.90;1.88;;;;;;;15.90;53.45;99025.09;5080028;28;20028;-82
2022/06/15 07:07:14;;;;;;;4.55;2.00;;;;;;;15.96;53.62;99031.28;5076607;28;20064;-77
2022/06/15 07:09:39;;;;;;;4.65;1.83;;;;;;;16.03;53.91;99026.13;5081056;28;20026;-86
2022/06/15 07:12:06;;;;;;;4.30;2.05;;;;;;;16.15;53.92;99031.88;5089005;28;20063;-84
2022/06/15 07:14:33;;;;;;;4.57;1.50;;;;;;;16.24;53.24;99028.31;5085520;28;20056;-84
2022/06/15 07:17:00;;;;;;;2.90;1.55;;;;;;;16.34;53.48;99017.78;5087281;28;20080;-82
2022/06/15 07:19:25;;;;;;;5.45;1.77;;;;;;;16.51;53.71;99022.53;5080432;28;20062;-82
2022/06/15 07:21:51;;;;;;;4.72;1.65;;;;;;;16.61;53.07;99024.19;5072755;28;20052;-79
2022/06/15 07:24:16;;;;;;;4.38;1.90;;;;;;;16.72;53.16;99021.09;5069479;28;20078;-78
2022/06/15 07:26:45;;;;;;;6.75;1.70;;;;;;;16.86;53.63;99019.03;5068075;28;20032;-82
2022/06/15 07:29:13;;;;;;;3.92;2.00;;;;;;;16.98;53.71;99028.66;5068488;28;20082;-81
2022/06/15 07:31:41;;;;;;;7.07;1.77;;;;;;;17.01;52.23;99028.00;5082529;28;20055;-80
2022/06/15 07:34:08;;;;;;;2.88;1.63;;;;;;;17.01;52.01;99025.22;5085037;28;20043;-82
2022/06/15 07:36:39;;;;;;;3.63;1.67;;;;;;;17.05;51.99;99015.13;5089100;28;20031;-82
2022/06/15 07:39:05;;;;;;;4.50;1.70;;;;;;;17.10;52.29;99024.13;5089771;28;20107;-82
2022/06/15 07:41:31;;;;;;;5.35;1.80;;;;;;;17.19;52.13;99026.88;5090089;28;20103;-79
2022/06/15 07:43:57;;;;;;;5.80;1.60;;;;;;;17.29;52.51;99019.38;5090908;28;20024;-81
2022/06/15 07:46:23;;;;;;;6.28;1.67;;;;;;;17.34;51.51;99017.25;5091281;28;20035;-80
2022/06/15 07:51:35;;;;;;;4.05;1.90;;;;;;;17.51;52.01;99029.47;5090151;28;20039;-81
2022/06/15 07:54:03;;;;;;;4.72;2.15;;;;;;;17.56;51.52;99023.72;5090893;28;20097;-84
2022/06/15 07:56:29;;;;;;;8.00;2.50;;;;;;;17.62;51.55;99029.94;5090890;28;20024;-80
2022/06/15 07:58:55;;;;;;;6.10;2.30;;;;;;;17.69;51.26;99028.25;5078815;28;20099;-82
2022/06/15 08:01:21;;;;;;;6.75;1.92;;;;;;;17.76;51.03;99019.44;5070252;28;20025;-79
2022/06/15 08:03:46;;;;;;;4.85;2.13;;;;;;;17.79;50.16;99020.75;5069952;28;20029;-83
2022/06/15 08:06:13;;;;;;;4.95;2.00;;;;;;;17.75;49.79;99019.78;5070902;28;20039;-83
2022/06/15 08:08:39;;;;;;;6.40;2.58;;;;;;;17.74;49.90;99020.91;5070573;28;20385;-83
2022/06/15 08:11:05;;;;;;;4.60;1.98;;;;;;;17.80;50.00;99022.38;5073894;28;20020;-85
2022/06/15 08:13:31;;;;;;;6.63;1.90;;;;;;;17.88;50.40;99026.25;5086773;28;20070;-81
2022/06/15 08:15:57;;;;;;;3.85;1.90;;;;;;;17.93;49.87;99014.97;5090681;28;20024;-83
2022/06/15 08:18:27;;;;;;;3.10;1.65;;;;;;;18.00;50.21;99004.22;5090631;28;20028;-81
2022/06/15 08:20:58;;;;;;;4.32;1.80;;;;;;;18.16;50.30;99012.81;5090274;28;20055;-79
2022/06/15 08:23:27;;;;;;;6.90;2.35;;;;;;;18.26;49.96;99008.81;5090357;28;20051;-80
2022/06/15 08:25:56;;;;;;;8.10;2.28;;;;;;;18.34;49.82;99009.94;5090447;28;20028;-79
2022/06/15 08:28:26;;;;;;;6.00;2.15;;;;;;;18.38;49.39;99022.00;5090581;28;20035;-79
2022/06/15 08:30:52;;;;;;;6.20;2.50;;;;;;;18.42;49.52;99014.63;5089951;28;20070;-80
2022/06/15 08:33:18;;;;;;;8.35;2.17;;;;;;;18.50;49.54;99022.09;5089693;28;20472;-80
2022/06/15 08:35:43;;;;;;;5.55;1.88;;;;;;;18.52;48.49;99030.09;5089615;28;20079;-79
2022/06/15 08:38:12;;;;;;;6.32;2.33;;;;;;;18.50;48.52;99022.09;5084672;28;20024;-80
2022/06/15 08:41:01;;;;;;;5.93;2.03;;;;;;;18.54;48.72;99022.25;5093014;28;20036;-79
2022/06/15 08:43:45;;;;;;;3.35;2.08;;;;;;;18.55;48.42;99021.91;5086071;28;20025;-83
2022/06/15 08:46:32;;;;;;;5.78;2.17;;;;;;;18.56;47.96;99020.75;5087386;28;20034;-80
2022/06/15 08:49:20;;;;;;;5.88;1.95;;;;;;;18.51;46.88;99018.16;5086259;28;20090;-81
2022/06/15 08:51:55;;;;;;;6.88;2.13;;;;;;;18.49;46.62;99014.13;5069899;28;20025;-79
2022/06/15 08:54:30;;;;;;;5.90;2.20;;;;;;;18.48;46.16;99024.38;5072407;28;20028;-78
2022/06/15 08:57:09;;;;;;;5.40;1.60;;;;;;;18.53;46.10;99012.28;5072195;28;21323;-83
2022/06/15 08:59:53;;;;;;;6.55;2.30;;;;;;;18.55;46.31;99019.13;5073845;28;20029;-82
2022/06/15 09:02:34;;;;;;;5.38;1.70;;;;;;;18.65;47.00;99017.13;5085382;28;20396;-81
2022/06/15 09:05:25;;;;;;;5.57;2.00;;;;;;;18.72;45.88;99006.28;5077330;28;20047;-79
2022/06/15 09:07:59;;;;;;;4.43;1.80;;;;;;;18.77;45.76;99013.59;5078497;28;20028;-82
2022/06/15 09:10:59;;;;;;;5.70;2.00;;;;;;;18.83;45.81;99012.25;5079103;28;20032;-77
2022/06/15 09:13:25;;;;;;;;;;;;;;;18.89;45.79;99008.13;5085787;28;20056;-76
2022/06/15 09:15:59;;;;;;;5.38;1.83;;;;;;;18.93;45.50;99011.84;5088624;28;19919;-80
2022/06/15 09:18:24;;;;;;;5.40;2.00;;;;;;;18.96;45.25;99008.41;5087871;28;20238;-83
2022/06/15 09:21:16;;;;;;;7.13;1.90;;;;;;;18.99;45.14;99004.16;5084519;28;20608;-79
2022/06/15 09:23:51;;;;;;;7.35;2.28;;;;;;;19.11;45.46;99020.91;5087727;28;20262;-78
2022/06/15 09:26:19;;;;;;;5.82;1.90;;;;;;;19.19;44.75;99002.50;5081087;28;20037;-80
2022/06/15 09:28:56;;;;;;;4.40;2.00;;;;;;;19.26;45.22;99002.78;5081935;28;20024;-80
2022/06/15 09:31:25;;;;;;;5.32;1.90;;;;;;;19.30;43.45;99011.22;5089052;28;20036;-76
2022/06/15 09:34:01;;;;;;;5.25;1.80;;;;;;;19.36;42.90;99018.22;5080853;28;20032;-78
2022/06/15 09:36:37;;;;;;;2.67;1.60;;;;;;;19.43;43.32;99012.91;5083435;28;20387;-82
2022/06/15 09:39:04;;;;;;;3.92;1.60;;;;;;;19.54;43.82;99006.94;5076528;28;20044;-82
2022/06/15 09:41:47;;;;;;;4.72;1.58;;;;;;;19.61;42.72;99008.00;5079535;28;20490;-82
2022/06/15 09:44:27;;;;;;;3.47;1.70;;;;;;;19.69;43.59;99011.81;5089437;28;20047;-77
2022/06/15 09:47:27;;;;;;;3.17;1.92;;;;;;;19.93;44.01;98996.38;5090240;28;20829;-79
2022/06/15 09:50:03;;;;;;;5.75;1.60;;;;;;;20.19;44.35;98998.00;5081414;28;20630;-82
2022/06/15 09:52:31;;;;;;;5.38;1.83;;;;;;;20.35;43.48;99000.91;5084139;28;20520;-81
2022/06/15 09:55:08;;;;;;;4.07;1.90;;;;;;;20.48;43.40;98994.19;5083863;28;20023;-82
2022/06/15 09:57:38;;;;;;;5.95;1.95;;;;;;;20.60;43.43;99001.69;5077362;28;20064;-77
2022/06/15 10:00:09;;;;;;;5.15;1.90;;;;;;;20.61;43.06;98994.13;5074120;28;20041;-76
2022/06/15 10:02:38;;;;;;;5.07;1.98;;;;;;;20.50;41.97;98997.44;5083982;28;20097;-73
2022/06/15 10:05:07;;;;;;;4.45;2.10;;;;;;;20.44;42.72;98996.03;5077712;28;20081;-75
2022/06/15 10:07:44;;;;;;;4.80;2.00;;;;;;;20.37;42.29;98984.66;5076086;28;20028;-75
2022/06/15 10:10:52;;;;;;;5.20;2.00;;;;;;;20.38;42.97;98991.84;5071426;28;20122;-69
2022/06/15 10:13:17;;;;;;;4.97;1.80;;;;;;;20.41;42.84;98980.00;5039053;28;20599;-75
2022/06/15 10:15:42;;;;;;;4.82;2.00;;;;;;;20.58;43.76;98980.94;5040225;28;20033;-73
2022/06/15 10:18:26;;;;;;;4.57;1.65;;;;;;;20.74;43.47;98972.66;5062187;28;20044;-73
2022/06/15 10:21:07;;;;;;;4.43;2.03;;;;;;;20.87;43.69;98956.72;5087743;28;20024;-76
2022/06/15 10:23:55;;;;;;;3.88;2.15;;;;;;;21.04;44.05;98956.41;5079908;28;20028;-78
2022/06/15 10:26:29;;;;;;;3.08;1.95;;;;;;;21.19;44.60;98959.63;5086880;28;20024;-76
2022/06/15 10:28:56;;;;;;;4.00;1.98;;;;;;;21.32;44.75;98949.22;5069588;28;20388;-76
2022/06/15 10:31:32;;;;;;;3.50;1.73;;;;;;;21.36;44.47;98950.13;5077454;28;20039;-76
2022/06/15 10:34:17;;;;;;;3.25;1.55;;;;;;;21.39;43.79;98953.03;5082145;28;20060;-77
2022/06/15 10:36:42;;;;;;;3.83;1.60;;;;;;;21.38;43.62;98956.16;5078645;28;20060;-77
2022/06/15 10:39:37;;;;;;;9.70;2.03;;;;;;;21.38;42.80;98950.59;5082808;28;20056;-75
2022/06/15 10:42:17;;;;;;;5.22;1.60;;;;;;;21.41;42.19;98945.09;5086549;28;20047;-75
2022/06/15 10:44:56;;;;;;;3.00;1.50;;;;;;;21.48;42.69;98943.66;5069442;28;20588;-76
2022/06/15 10:47:34;;;;;;;6.30;1.70;;;;;;;21.58;42.98;98936.75;5086572;28;20050;-76
2022/06/15 10:50:06;;;;;;;6.15;1.58;;;;;;;21.77;42.98;98941.66;5088468;28;20062;-75
2022/06/15 10:52:44;;;;;;;3.30;1.90;;;;;;;21.96;43.35;98944.53;5078952;28;20119;-75
2022/06/15 11:04:17;;;;;;;3.28;1.60;;;;;;;22.35;39.68;98945.81;5073508;28;20123;-80
2022/06/15 11:07:01;;;;;;;4.68;1.67;;;;;;;22.55;39.85;98950.31;5081320;28;20028;-84
2022/06/15 11:09:31;;;;;;;3.70;1.70;;;;;;;22.71;38.66;98943.84;5101701;27;20025;-82
2022/06/15 11:12:01;;;;;;;9.38;1.70;;;;;;;22.78;40.46;98944.00;5083851;28;20122;-81
2022/06/15 11:14:42;;;;;;;5.78;2.25;;;;;;;22.77;39.52;98936.00;5077755;28;20135;-83
2022/06/15 11:20:41;;;;;;;3.33;1.63;;;;;;;22.77;38.61;98936.81;5087690;28;20089;-87
2022/06/15 11:23:12;;;;;;;3.58;1.80;;;;;;;22.79;39.11;98933.66;5082931;28;20032;-82
2022/06/15 11:25:46;;;;;;;4.55;1.80;;;;;;;22.90;39.50;98926.28;5079225;28;20020;-81
2022/06/15 11:28:30;;;;;;;4.65;1.70;;;;;;;23.02;39.56;98928.13;5088630;28;20507;-82
2022/06/15 11:31:10;;;;;;;3.80;1.60;;;;;;;23.12;40.20;98933.13;5076405;28;20532;-80
2022/06/15 11:33:43;;;;;;;3.47;1.50;;;;;;;23.24;40.00;98936.97;5084142;28;20582;-85
2022/06/15 11:36:43;;;;;;;4.57;1.92;;;;;;;23.38;38.63;98936.44;5074988;28;20036;-82
2022/06/15 11:39:17;;;;;;;4.68;1.75;;;;;;;23.19;37.15;98935.25;5079703;28;20040;-79
2022/06/15 11:41:48;;;;;;;3.72;1.92;;;;;;;22.94;36.38;98927.16;5072652;28;20691;-81
2022/06/15 11:44:19;;;;;;;3.88;1.60;;;;;;;22.82;37.45;98928.13;5084978;28;20496;-82
2022/06/15 11:47:08;;;;;;;3.58;1.52;;;;;;;22.93;38.24;98933.13;5071367;28;20099;-84
2022/06/15 11:50:00;;;;;;;;;;;;;;;23.15;39.25;98932.38;5086420;28;20043;-80
2022/06/15 11:52:28;;;;;;;4.03;1.65;;;;;;;23.27;38.75;98930.63;5065947;28;20536;-80
2022/06/15 11:55:24;;;;;;;2.83;1.33;;;;;;;23.25;37.99;98935.78;5081501;28;20139;-77
2022/06/15 11:58:18;;;;;;;2.38;1.40;;;;;;;23.28;37.33;98935.84;5066351;28;20282;-79
2022/06/15 12:00:51;;;;;;;3.33;1.35;;;;;;;23.36;36.85;98939.63;5099079;28;20511;-80
2022/06/15 12:03:28;;;;;;;2.72;1.30;;;;;;;23.35;37.78;98929.59;5086832;28;20396;-76
2022/06/15 12:06:12;;;;;;;3.78;1.50;;;;;;;23.47;37.98;98921.00;5075855;28;20032;-81
2022/06/15 12:08:59;;;;;;;3.10;1.50;;;;;;;23.63;36.65;98920.09;5085669;28;20031;-83
2022/06/15 12:14:40;;;;;;;2.50;1.20;;;;;;;23.76;36.95;98917.91;5087190;28;20408;-83